createdAt,value
2023-03-06T00:00:19.820Z,8.13
2023-03-06T00:02:47.057Z,9.23
2023-03-06T00:05:15.629Z,8.32
2023-03-06T00:07:42.865Z,7.88
2023-03-06T00:10:14.527Z,6.50
2023-03-06T00:15:08.890Z,5.38
2023-03-06T00:17:36.359Z,6.53
2023-03-06T00:20:04.885Z,6.95
2023-03-06T00:22:31.885Z,5.22
2023-03-06T00:24:58.738Z,4.60
2023-03-06T00:27:26.459Z,4.60
2023-03-06T00:29:57.684Z,7.28
2023-03-06T00:32:25.311Z,7.67
2023-03-06T00:34:53.439Z,7.65
2023-03-06T00:37:21.083Z,8.32
2023-03-06T00:39:49.854Z,7.10
2023-03-06T00:42:18.495Z,4.22
2023-03-06T00:44:45.910Z,4.85
2023-03-06T00:47:13.714Z,5.88
2023-03-06T00:49:40.636Z,9.20
2023-03-06T00:52:07.517Z,4.32
2023-03-06T00:54:34.281Z,5.85
2023-03-06T00:57:01.293Z,6.97
2023-03-06T00:59:28.084Z,6.18
2023-03-06T01:01:55.503Z,3.75
2023-03-06T01:04:23.002Z,6.05
2023-03-06T01:06:50.242Z,5.70
2023-03-06T01:09:17.155Z,6.55
2023-03-06T01:11:43.994Z,5.68
2023-03-06T01:14:11.411Z,4.70
2023-03-06T01:16:38.313Z,6.10
2023-03-06T01:19:05.090Z,4.75
2023-03-06T01:21:32.479Z,6.93
2023-03-06T01:23:59.444Z,6.15
2023-03-06T01:26:26.452Z,6.97
2023-03-06T01:28:53.270Z,5.68
2023-03-06T01:31:20.292Z,4.03
2023-03-06T01:33:47.096Z,5.88
2023-03-06T01:36:14.348Z,9.25
2023-03-06T01:38:41.373Z,5.57
2023-03-06T01:41:10.920Z,3.33
2023-03-06T01:43:39.697Z,6.32
2023-03-06T01:46:42.017Z,3.72
2023-03-06T01:49:31.179Z,5.03
2023-03-06T01:52:02.976Z,9.63
2023-03-06T01:54:35.975Z,3.25
2023-03-06T01:57:12.015Z,4.32
2023-03-06T01:59:40.255Z,2.85
2023-03-06T02:02:09.887Z,4.35
2023-03-06T02:04:39.624Z,10.15
2023-03-06T02:07:08.026Z,4.05
2023-03-06T02:09:36.677Z,2.53
2023-03-06T02:12:07.770Z,3.88
2023-03-06T02:14:34.973Z,3.03
2023-03-06T02:17:02.568Z,3.90
2023-03-06T02:20:09.195Z,5.50
2023-03-06T02:23:03.939Z,2.42
2023-03-06T02:25:51.654Z,4.75
2023-03-06T02:28:22.896Z,2.85
2023-03-06T02:30:52.116Z,6.47
2023-03-06T02:33:23.323Z,4.45
2023-03-06T02:35:53.574Z,4.60
2023-03-06T02:38:24.061Z,3.83
2023-03-06T02:40:52.361Z,3.30
2023-03-06T02:43:23.561Z,3.83
2023-03-06T02:45:51.482Z,5.80
2023-03-06T02:48:19.462Z,7.18
2023-03-06T02:50:47.181Z,2.50
2023-03-06T02:53:16.081Z,6.30
2023-03-06T02:55:43.294Z,3.53
2023-03-06T02:58:10.440Z,8.60
2023-03-06T03:00:40.109Z,4.10
2023-03-06T03:03:09.977Z,6.93
2023-03-06T03:05:36.813Z,3.83
2023-03-06T03:08:11.496Z,4.43
2023-03-06T03:10:38.639Z,4.40
2023-03-06T03:13:06.394Z,4.25
2023-03-06T03:15:35.201Z,3.53
2023-03-06T03:18:02.051Z,5.70
2023-03-06T03:20:29.019Z,2.35
2023-03-06T03:22:56.233Z,6.43
2023-03-06T03:25:25.574Z,1.83
2023-03-06T03:27:55.423Z,4.03
2023-03-06T03:30:22.756Z,5.60
2023-03-06T03:32:50.254Z,4.03
2023-03-06T03:35:17.338Z,4.18
2023-03-06T03:37:44.261Z,6.60
2023-03-06T03:40:11.997Z,5.25
2023-03-06T03:42:38.917Z,9.68
2023-03-06T03:45:07.108Z,4.57
2023-03-06T03:47:34.123Z,3.30
2023-03-06T03:50:00.967Z,6.85
2023-03-06T03:52:27.850Z,5.40
2023-03-06T03:54:55.000Z,6.15
2023-03-06T03:57:21.976Z,4.35
2023-03-06T03:59:51.963Z,3.00
2023-03-06T04:02:26.494Z,5.05
2023-03-06T04:05:02.805Z,4.43
2023-03-06T04:07:29.961Z,4.78
2023-03-06T04:09:57.103Z,3.38
2023-03-06T04:12:24.754Z,2.35
2023-03-06T04:14:51.802Z,6.70
2023-03-06T04:17:19.215Z,5.30
2023-03-06T04:19:46.118Z,2.42
2023-03-06T04:22:13.116Z,4.40
2023-03-06T04:24:41.659Z,5.68
2023-03-06T04:27:09.166Z,8.38
2023-03-06T04:29:36.189Z,4.93
2023-03-06T04:32:03.396Z,5.88
2023-03-06T04:34:30.396Z,6.15
2023-03-06T04:36:57.378Z,5.00
2023-03-06T04:39:24.338Z,5.43
2023-03-06T04:41:51.355Z,2.55
2023-03-06T04:44:18.336Z,6.20
2023-03-06T04:46:45.197Z,5.57
2023-03-06T04:49:12.076Z,4.05
2023-03-06T04:51:38.967Z,5.18
2023-03-06T04:54:06.070Z,7.35
2023-03-06T04:56:34.499Z,7.20
2023-03-06T04:59:02.624Z,4.80
2023-03-06T05:01:29.577Z,5.45
2023-03-06T05:03:56.325Z,11.75
2023-03-06T05:06:23.177Z,13.00
2023-03-06T05:08:50.135Z,8.98
2023-03-06T05:11:17.014Z,10.00
2023-03-06T05:13:43.920Z,10.65
2023-03-06T05:16:10.997Z,11.05
2023-03-06T05:18:37.973Z,12.10
2023-03-06T05:21:06.082Z,11.07
2023-03-06T05:23:34.742Z,10.77
2023-03-06T05:26:01.696Z,11.88
2023-03-06T05:28:28.768Z,6.85
2023-03-06T05:30:56.474Z,9.60
2023-03-06T05:33:23.613Z,14.43
2023-03-06T05:35:50.712Z,10.98
2023-03-06T05:38:17.637Z,10.75
2023-03-06T05:40:45.343Z,7.82
2023-03-06T05:43:12.436Z,8.60
2023-03-06T05:45:40.061Z,8.65
2023-03-06T05:48:08.076Z,7.07
2023-03-06T05:50:34.924Z,8.80
2023-03-06T05:53:01.842Z,7.53
2023-03-06T05:55:29.118Z,9.27
2023-03-06T05:57:56.041Z,8.75
2023-03-06T06:00:23.454Z,7.95
2023-03-06T06:02:50.373Z,5.53
2023-03-06T06:05:17.456Z,3.50
2023-03-06T06:07:44.347Z,9.75
2023-03-06T06:10:11.838Z,7.00
2023-03-06T06:12:39.469Z,5.65
2023-03-06T06:15:07.071Z,6.60
2023-03-06T06:17:33.999Z,5.68
2023-03-06T06:20:00.903Z,7.93
2023-03-06T06:22:27.846Z,9.63
2023-03-06T06:24:54.938Z,12.38
2023-03-06T06:27:21.768Z,9.10
2023-03-06T06:29:52.144Z,12.02
2023-03-06T06:32:19.149Z,14.07
2023-03-06T06:34:46.557Z,6.53
2023-03-06T06:37:13.539Z,8.68
2023-03-06T06:39:40.942Z,5.10
2023-03-06T06:42:29.883Z,4.30
2023-03-06T06:44:56.848Z,9.88
2023-03-06T06:47:25.324Z,4.43
2023-03-06T06:49:54.063Z,6.03
2023-03-06T06:52:21.071Z,9.30
2023-03-06T06:54:48.221Z,7.05
2023-03-06T06:57:15.877Z,8.80
2023-03-06T06:59:42.774Z,12.07
2023-03-06T07:02:14.316Z,4.47
2023-03-06T07:07:27.705Z,10.60
2023-03-06T07:09:55.880Z,8.85
2023-03-06T07:12:22.909Z,13.38
2023-03-06T07:14:50.090Z,9.18
2023-03-06T07:17:17.054Z,14.55
2023-03-06T07:19:43.997Z,11.18
2023-03-06T07:22:10.932Z,8.32
2023-03-06T07:24:37.955Z,10.27
2023-03-06T07:27:05.031Z,7.90
2023-03-06T07:29:34.079Z,6.68
2023-03-06T07:32:01.026Z,9.30
2023-03-06T07:34:28.012Z,6.88
2023-03-06T07:36:55.131Z,7.85
2023-03-06T07:39:22.121Z,7.88
2023-03-06T07:41:49.074Z,4.63
2023-03-06T07:44:16.037Z,6.65
2023-03-06T07:46:43.130Z,7.55
2023-03-06T07:49:10.148Z,6.47
2023-03-06T07:51:37.185Z,4.78
2023-03-06T07:54:04.155Z,5.75
2023-03-06T07:56:31.142Z,9.63
2023-03-06T07:58:58.076Z,5.30
2023-03-06T08:01:25.180Z,5.28
2023-03-06T08:03:52.291Z,5.10
2023-03-06T08:06:23.023Z,6.28
2023-03-06T08:08:51.267Z,5.95
2023-03-06T08:11:20.717Z,8.00
2023-03-06T08:13:48.908Z,6.80
2023-03-06T08:16:17.861Z,5.38
2023-03-06T08:18:46.356Z,7.43
2023-03-06T08:21:18.077Z,7.68
2023-03-06T08:23:46.511Z,5.68
2023-03-06T08:26:16.384Z,5.72
2023-03-06T08:28:43.889Z,4.88
2023-03-06T08:31:14.063Z,7.07
2023-03-06T08:33:41.512Z,4.30
2023-03-06T08:36:08.712Z,4.55
2023-03-06T08:38:35.664Z,6.10
2023-03-06T08:41:02.650Z,3.88
2023-03-06T08:43:29.930Z,6.93
2023-03-06T08:45:58.687Z,4.35
2023-03-06T08:48:25.801Z,4.38
2023-03-06T08:50:53.390Z,5.22
2023-03-06T08:53:22.727Z,7.20
2023-03-06T08:55:55.045Z,6.63
2023-03-06T08:58:22.010Z,3.20
2023-03-06T09:00:49.110Z,4.40
2023-03-06T09:03:16.089Z,4.60
2023-03-06T09:05:43.258Z,2.95
2023-03-06T09:08:10.208Z,5.18
2023-03-06T09:10:37.274Z,3.90
2023-03-06T09:13:04.267Z,3.25
2023-03-06T09:15:31.291Z,3.25
2023-03-06T09:17:58.372Z,6.00
2023-03-06T09:20:25.288Z,5.22
2023-03-06T09:22:52.313Z,5.18
2023-03-06T09:25:21.929Z,5.65
2023-03-06T09:28:01.853Z,4.90
2023-03-06T09:30:35.785Z,2.33
2023-03-06T09:33:02.617Z,4.47
2023-03-06T09:35:29.601Z,4.57
2023-03-06T09:37:56.792Z,5.47
2023-03-06T09:40:34.455Z,2.67
2023-03-06T09:43:01.614Z,4.03
2023-03-06T09:45:37.455Z,4.78
2023-03-06T09:48:15.430Z,2.60
2023-03-06T09:51:18.092Z,8.52
2023-03-06T09:54:13.452Z,6.07
2023-03-06T09:56:46.790Z,3.97
2023-03-06T09:59:19.721Z,8.07
2023-03-06T10:01:58.997Z,3.97
2023-03-06T10:04:52.131Z,5.72
2023-03-06T10:07:22.607Z,5.57
2023-03-06T10:09:54.473Z,2.05
2023-03-06T10:15:16.707Z,16.67
2023-03-06T10:17:44.178Z,3.70
2023-03-06T10:20:35.373Z,3.42
2023-03-06T10:23:36.350Z,3.17
2023-03-06T10:26:11.222Z,4.25
2023-03-06T10:28:43.175Z,2.95
2023-03-06T10:31:21.328Z,6.60
2023-03-06T10:34:26.174Z,4.72
2023-03-06T10:36:54.552Z,4.30
2023-03-06T10:39:22.865Z,4.25
2023-03-06T10:41:52.875Z,5.35
2023-03-06T10:44:21.269Z,14.43
2023-03-06T10:46:51.713Z,6.15
2023-03-06T10:49:30.128Z,3.60
2023-03-06T10:52:01.124Z,3.13
2023-03-06T10:54:30.498Z,2.72
2023-03-06T10:56:57.543Z,4.15
2023-03-06T10:59:28.460Z,3.33
2023-03-06T11:02:16.695Z,11.40
2023-03-06T11:04:48.078Z,3.70
2023-03-06T11:07:23.498Z,6.07
2023-03-06T11:10:17.282Z,6.88
2023-03-06T11:12:44.652Z,14.13
2023-03-06T11:15:22.350Z,4.50
2023-03-06T11:17:54.569Z,2.38
2023-03-06T11:20:38.411Z,4.28
2023-03-06T11:23:44.742Z,7.63
2023-03-06T11:26:30.295Z,5.43
2023-03-06T11:29:38.879Z,5.40
2023-03-06T11:32:24.420Z,11.32
2023-03-06T11:35:13.734Z,2.25
2023-03-06T11:37:54.145Z,8.07
2023-03-06T11:40:27.167Z,12.40
2023-03-06T11:43:12.126Z,14.88
2023-03-06T11:45:45.512Z,5.03
2023-03-06T11:48:22.390Z,5.38
2023-03-06T11:50:51.920Z,11.05
2023-03-06T11:53:20.706Z,14.75
2023-03-06T11:56:02.509Z,7.85
2023-03-06T11:59:09.270Z,5.03
2023-03-06T12:01:40.896Z,7.55
2023-03-06T12:04:34.513Z,5.93
2023-03-06T12:07:19.372Z,9.65
2023-03-06T12:10:11.057Z,10.73
2023-03-06T12:13:04.289Z,8.57
2023-03-06T12:16:10.990Z,4.30
2023-03-06T12:19:02.331Z,3.85
2023-03-06T12:22:09.390Z,2.67
2023-03-06T12:25:18.823Z,5.53
2023-03-06T12:28:19.576Z,3.88
2023-03-06T12:31:26.496Z,4.13
2023-03-06T12:34:23.379Z,2.58
2023-03-06T12:37:07.400Z,3.45
2023-03-06T12:40:07.140Z,4.32
2023-03-06T12:43:00.997Z,3.28
2023-03-06T12:45:34.276Z,5.05
2023-03-06T12:48:02.202Z,5.55
2023-03-06T12:50:32.201Z,6.03
2023-03-06T12:53:01.926Z,4.28
2023-03-06T12:55:32.532Z,4.68
2023-03-06T12:58:39.196Z,13.10
2023-03-06T13:01:34.313Z,5.88
2023-03-06T13:04:25.834Z,4.80
2023-03-06T13:07:22.937Z,10.10
2023-03-06T13:10:14.503Z,4.30
2023-03-06T13:12:58.139Z,22.35
2023-03-06T13:15:43.067Z,12.60
2023-03-06T13:18:50.997Z,5.57
2023-03-06T13:21:46.018Z,6.13
2023-03-06T13:24:22.876Z,11.13
2023-03-06T13:27:11.400Z,10.02
2023-03-06T13:29:49.943Z,6.65
2023-03-06T13:32:20.057Z,5.25
2023-03-06T13:34:49.292Z,4.60
2023-03-06T13:37:36.686Z,3.38
2023-03-06T13:40:14.450Z,5.65
2023-03-06T13:43:20.010Z,3.78
2023-03-06T13:45:48.909Z,5.72
2023-03-06T13:48:43.827Z,7.43
2023-03-06T13:51:24.490Z,5.78
2023-03-06T13:54:20.847Z,4.53
2023-03-06T13:57:10.915Z,3.30
2023-03-06T14:00:17.751Z,4.15
2023-03-06T14:03:25.207Z,7.65
2023-03-06T14:05:52.468Z,10.88
2023-03-06T14:08:33.352Z,3.17
2023-03-06T14:11:05.489Z,6.57
2023-03-06T14:13:45.439Z,3.40
2023-03-06T14:16:22.972Z,10.57
2023-03-06T14:18:52.086Z,9.73
2023-03-06T14:21:40.568Z,8.48
2023-03-06T14:24:16.448Z,7.60
2023-03-06T14:26:46.159Z,3.80
2023-03-06T14:29:30.125Z,5.18
2023-03-06T14:31:59.666Z,7.50
2023-03-06T14:34:29.490Z,13.35
2023-03-06T14:37:00.437Z,5.30
2023-03-06T14:39:36.746Z,5.03
2023-03-06T14:42:19.585Z,3.90
2023-03-06T14:44:48.561Z,3.58
2023-03-06T14:47:27.253Z,3.63
2023-03-06T14:50:21.923Z,3.78
2023-03-06T14:52:57.454Z,4.60
2023-03-06T14:55:26.457Z,4.50
2023-03-06T14:57:57.951Z,3.13
2023-03-06T15:00:30.674Z,5.10
2023-03-06T15:02:57.938Z,4.55
2023-03-06T15:05:28.978Z,4.85
2023-03-06T15:07:59.757Z,5.17
2023-03-06T15:10:32.751Z,4.05
2023-03-06T15:13:11.494Z,3.90
2023-03-06T15:15:38.629Z,5.18
2023-03-06T15:18:28.771Z,9.50
2023-03-06T15:21:07.996Z,4.35
2023-03-06T15:23:38.250Z,6.28
2023-03-06T15:26:28.992Z,3.58
2023-03-06T15:29:09.311Z,4.45
2023-03-06T15:31:39.266Z,2.65
2023-03-06T15:34:18.796Z,5.95
2023-03-06T15:36:54.406Z,2.72
2023-03-06T15:39:36.281Z,2.92
2023-03-06T15:44:53.249Z,1.67
2023-03-06T15:47:21.398Z,3.35
2023-03-06T15:49:52.153Z,3.75
2023-03-06T15:52:20.590Z,3.20
2023-03-06T15:54:47.863Z,7.72
2023-03-06T15:57:24.492Z,5.85
2023-03-06T15:59:51.800Z,11.05
2023-03-06T16:02:21.416Z,11.02
2023-03-06T16:04:49.430Z,11.77
2023-03-06T16:07:16.841Z,10.23
2023-03-06T16:09:44.330Z,7.03
2023-03-06T16:12:19.547Z,10.38
2023-03-06T16:14:47.970Z,15.45
2023-03-06T16:17:15.536Z,7.45
2023-03-06T16:19:43.297Z,7.47
2023-03-06T16:22:10.463Z,12.00
2023-03-06T16:24:37.982Z,11.43
2023-03-06T16:27:05.165Z,17.65
2023-03-06T16:29:32.213Z,12.57
2023-03-06T16:32:02.048Z,10.00
2023-03-06T16:34:29.191Z,10.93
2023-03-06T16:36:56.522Z,28.85
2023-03-06T16:39:24.319Z,28.92
2023-03-06T16:41:51.375Z,26.92
2023-03-06T16:44:18.679Z,20.35
2023-03-06T16:46:47.262Z,6.68
2023-03-06T16:49:19.748Z,8.57
2023-03-06T16:51:47.097Z,8.80
2023-03-06T16:54:14.293Z,11.32
2023-03-06T16:56:41.615Z,14.57
2023-03-06T16:59:08.669Z,14.77
2023-03-06T17:01:35.692Z,8.25
2023-03-06T17:04:02.757Z,8.02
2023-03-06T17:06:31.006Z,9.82
2023-03-06T17:09:01.036Z,12.38
2023-03-06T17:11:28.676Z,10.45
2023-03-06T17:13:55.631Z,12.15
2023-03-06T17:16:22.526Z,7.25
2023-03-06T17:18:49.797Z,7.38
2023-03-06T17:21:17.188Z,7.30
2023-03-06T17:23:44.795Z,6.63
2023-03-06T17:26:18.849Z,8.25
2023-03-06T17:28:46.508Z,4.78
2023-03-06T17:31:22.606Z,7.82
2023-03-06T17:33:51.456Z,13.57
2023-03-06T17:36:19.612Z,7.93
2023-03-06T17:38:47.033Z,7.53
2023-03-06T17:41:14.687Z,7.57
2023-03-06T17:43:42.074Z,5.90
2023-03-06T17:46:11.218Z,7.45
2023-03-06T17:48:38.504Z,9.30
2023-03-06T17:51:05.934Z,12.10
2023-03-06T17:53:33.577Z,11.90
2023-03-06T17:56:04.191Z,12.48
2023-03-06T17:58:31.574Z,13.30
2023-03-06T18:00:59.020Z,15.13
2023-03-06T18:03:26.209Z,15.00
2023-03-06T18:06:00.964Z,13.32
2023-03-06T18:08:27.938Z,12.32
2023-03-06T18:11:04.157Z,15.98
2023-03-06T18:13:32.201Z,14.52
2023-03-06T18:16:01.602Z,13.25
2023-03-06T18:18:29.642Z,10.93
2023-03-06T18:20:57.364Z,11.07
2023-03-06T18:23:24.829Z,15.32
2023-03-06T18:25:52.280Z,18.02
2023-03-06T18:28:19.622Z,13.20
2023-03-06T18:30:47.383Z,14.68
2023-03-06T18:33:15.305Z,13.45
2023-03-06T18:35:44.722Z,10.57
2023-03-06T18:38:17.191Z,16.48
2023-03-06T18:40:44.333Z,10.70
2023-03-06T18:43:11.186Z,12.50
2023-03-06T18:45:38.402Z,10.85
2023-03-06T18:48:05.871Z,7.78
2023-03-06T18:50:34.764Z,12.65
2023-03-06T18:53:01.572Z,9.68
2023-03-06T18:55:28.495Z,11.68
2023-03-06T18:57:55.308Z,14.65
2023-03-06T19:00:23.794Z,12.60
2023-03-06T19:02:51.116Z,15.52
2023-03-06T19:05:18.063Z,14.13
2023-03-06T19:07:44.924Z,16.25
2023-03-06T19:10:12.106Z,18.50
2023-03-06T19:12:38.945Z,15.73
2023-03-06T19:15:06.345Z,17.35
2023-03-06T19:17:33.418Z,18.95
2023-03-06T19:20:00.263Z,30.67
2023-03-06T19:22:27.109Z,24.23
2023-03-06T19:24:54.043Z,25.05
2023-03-06T19:27:21.508Z,16.65
2023-03-06T19:29:48.319Z,12.85
2023-03-06T19:32:15.322Z,20.90
2023-03-06T19:34:42.247Z,24.88
2023-03-06T19:37:09.063Z,20.15
2023-03-06T19:39:35.904Z,19.60
2023-03-06T19:42:04.686Z,13.88
2023-03-06T19:44:31.502Z,17.67
2023-03-06T19:46:58.300Z,16.20
2023-03-06T19:49:25.626Z,17.35
2023-03-06T19:51:52.492Z,18.10
2023-03-06T19:54:23.542Z,24.05
2023-03-06T19:56:50.749Z,23.48
2023-03-06T19:59:17.531Z,23.77
2023-03-06T20:01:44.419Z,26.20
2023-03-06T20:04:11.653Z,24.13
2023-03-06T20:06:39.021Z,28.73
2023-03-06T20:09:09.016Z,22.40
2023-03-06T20:11:37.653Z,23.27
2023-03-06T20:14:09.630Z,21.60
2023-03-06T20:16:37.885Z,16.15
2023-03-06T20:19:08.507Z,18.67
2023-03-06T20:21:43.017Z,20.35
2023-03-06T20:24:17.481Z,24.63
2023-03-06T20:26:49.727Z,31.60
2023-03-06T20:29:23.748Z,23.92
2023-03-06T20:32:02.254Z,24.88
2023-03-06T20:34:33.484Z,29.90
2023-03-06T20:37:01.779Z,34.73
2023-03-06T20:39:29.399Z,32.85
2023-03-06T20:42:00.478Z,31.58
2023-03-06T20:44:29.679Z,38.97
2023-03-06T20:46:56.831Z,39.47
2023-03-06T20:49:27.421Z,36.33
2023-03-06T20:51:57.034Z,40.42
2023-03-06T20:54:23.994Z,40.15
2023-03-06T20:56:51.522Z,45.28
2023-03-06T20:59:20.472Z,44.00
2023-03-06T21:01:49.301Z,47.10
2023-03-06T21:04:18.106Z,56.83
2023-03-06T21:06:47.486Z,65.47
2023-03-06T21:09:17.082Z,72.60
2023-03-06T21:11:44.300Z,83.18
2023-03-06T21:14:17.511Z,83.47
2023-03-06T21:16:44.925Z,89.13
2023-03-06T21:19:11.917Z,90.85
2023-03-06T21:21:38.860Z,90.93
2023-03-06T21:24:05.916Z,98.88
2023-03-06T21:26:34.188Z,99.53
2023-03-06T21:29:01.551Z,97.38
2023-03-06T21:31:29.623Z,111.13
2023-03-06T21:33:57.078Z,123.38
2023-03-06T21:36:24.807Z,113.75
2023-03-06T21:38:52.811Z,120.90
2023-03-06T21:41:24.914Z,114.53
2023-03-06T21:43:56.904Z,114.32
2023-03-06T21:46:24.302Z,116.07
2023-03-06T21:48:51.223Z,115.80
2023-03-06T21:51:19.726Z,110.38
2023-03-06T21:53:47.660Z,113.47
2023-03-06T21:56:17.232Z,104.82
2023-03-06T21:58:44.823Z,97.05
2023-03-06T22:01:13.989Z,99.03
2023-03-06T22:03:41.050Z,100.40
2023-03-06T22:06:12.608Z,101.82
2023-03-06T22:08:40.319Z,93.53
2023-03-06T22:11:09.750Z,96.32
2023-03-06T22:13:37.402Z,91.35
2023-03-06T22:16:04.884Z,88.65
2023-03-06T22:18:31.909Z,89.40
2023-03-06T22:20:58.839Z,87.03
2023-03-06T22:23:26.174Z,90.07
2023-03-06T22:25:53.052Z,89.15
2023-03-06T22:28:19.958Z,85.95
2023-03-06T22:30:46.815Z,82.95
2023-03-06T22:33:13.740Z,76.32
2023-03-06T22:35:40.587Z,78.50
2023-03-06T22:38:07.598Z,77.07
2023-03-06T22:40:34.432Z,74.22
2023-03-06T22:43:01.324Z,75.20
2023-03-06T22:45:28.201Z,75.03
2023-03-06T22:48:02.362Z,79.05
2023-03-06T22:50:36.041Z,53.17
2023-03-06T22:53:02.936Z,69.28
2023-03-06T22:55:29.770Z,69.22
2023-03-06T22:57:56.718Z,64.35
2023-03-06T23:00:23.527Z,60.25
2023-03-06T23:02:50.396Z,63.30
2023-03-06T23:05:17.297Z,55.80
2023-03-06T23:07:44.290Z,50.50
2023-03-06T23:10:11.442Z,52.97
2023-03-06T23:12:58.240Z,66.72
2023-03-06T23:15:45.139Z,68.40
2023-03-06T23:18:32.596Z,63.15
2023-03-06T23:21:20.846Z,62.15
2023-03-06T23:24:07.811Z,47.72
2023-03-06T23:26:35.103Z,43.60
2023-03-06T23:29:02.194Z,37.97
2023-03-06T23:31:30.207Z,39.42
2023-03-06T23:33:59.225Z,36.20
2023-03-06T23:36:26.727Z,30.40
2023-03-06T23:38:53.655Z,31.70
2023-03-06T23:41:21.617Z,34.42
2023-03-06T23:43:49.384Z,34.17
2023-03-06T23:46:16.915Z,39.45
2023-03-06T23:48:44.244Z,32.80
2023-03-06T23:51:19.520Z,33.05
2023-03-06T23:53:47.941Z,36.72
2023-03-06T23:56:15.472Z,33.15
2023-03-06T23:58:42.581Z,38.03
